Time;durP1;ratioP1;P1;durP2;ratioP2;P2;SDS_P1;SDS_P2;PMS_P1;PMS_P2;Temp;Humidity;BMP_temperature;BMP_pressure;BME280_temperature;BME280_humidity;BME280_pressure;Samples;Min_cycle;Max_cycle;Signal;HPM_P1;HPM_P2
2023/10/01 00:00:28;;;;;;;4.87;2.80;;;19.50;99.30;;;;;;5084540;28;20279;-88
2023/10/01 00:03:06;;;;;;;4.07;2.77;;;19.50;98.90;;;;;;5093831;28;20230;-88
2023/10/01 00:05:40;;;;;;;4.13;2.90;;;19.50;98.90;;;;;;5082658;28;20277;-88
2023/10/01 00:08:12;;;;;;;4.13;2.93;;;19.40;99.00;;;;;;5095050;28;20548;-88
2023/10/01 00:10:44;;;;;;;4.20;3.00;;;19.40;98.90;;;;;;5089342;28;20172;-88
2023/10/01 00:13:09;;;;;;;3.83;2.80;;;19.40;98.90;;;;;;5073522;28;20171;-88
2023/10/01 00:15:38;;;;;;;2.93;2.60;;;19.40;98.90;;;;;;5076674;28;20187;-88
2023/10/01 00:18:06;;;;;;;3.53;2.83;;;19.40;98.90;;;;;;5089842;28;20167;-88
2023/10/01 00:20:35;;;;;;;4.10;2.83;;;19.40;98.90;;;;;;5084723;28;20167;-88
2023/10/01 00:23:03;;;;;;;5.00;2.97;;;19.40;98.90;;;;;;5087453;28;20202;-88
2023/10/01 00:25:36;;;;;;;4.50;3.00;;;19.40;98.90;;;;;;5084888;28;20167;-88
2023/10/01 00:28:08;;;;;;;3.33;2.83;;;19.30;99.20;;;;;;5086061;28;20284;-88
2023/10/01 00:30:36;;;;;;;3.27;2.70;;;19.30;98.80;;;;;;5089131;28;20221;-88
2023/10/01 00:33:07;;;;;;;3.47;2.90;;;19.30;98.90;;;;;;5085680;28;20202;-88
2023/10/01 00:35:36;;;;;;;3.60;3.00;;;19.30;98.90;;;;;;5092903;28;20182;-88
2023/10/01 00:38:02;;;;;;;4.57;3.20;;;19.30;98.90;;;;;;5084824;28;20297;-88
2023/10/01 00:40:30;;;;;;;3.80;2.90;;;19.30;98.90;;;;;;5092610;28;20270;-88
2023/10/01 00:43:01;;;;;;;3.10;2.70;;;19.30;98.90;;;;;;5083511;28;20223;-88
2023/10/01 00:45:30;;;;;;;4.00;2.90;;;19.30;98.70;;;;;;5094166;28;20174;-88
2023/10/01 00:47:59;;;;;;;3.67;3.13;;;19.30;98.80;;;;;;5082625;28;20186;-89
2023/10/01 00:50:28;;;;;;;3.30;2.67;;;19.30;98.90;;;;;;5094122;28;20239;-88
2023/10/01 00:52:57;;;;;;;3.33;2.50;;;19.30;98.80;;;;;;5086600;28;20178;-88
2023/10/01 00:55:23;;;;;;;4.53;2.77;;;19.30;98.90;;;;;;5074497;28;20175;-88
2023/10/01 00:58:10;;;;;;;4.00;2.63;;;19.30;98.80;;;;;;5090790;28;20197;-88
2023/10/01 01:00:43;;;;;;;3.00;2.70;;;19.20;98.80;;;;;;5073542;28;20179;-88
2023/10/01 01:03:18;;;;;;;3.73;2.83;;;19.20;98.80;;;;;;5085921;28;20458;-88
2023/10/01 01:06:23;;;;;;;3.43;2.60;;;19.20;98.80;;;;;;5075755;28;20163;-89
2023/10/01 01:08:46;;;;;;;4.40;2.73;;;19.20;98.80;;;;;;5082124;28;20172;-89
2023/10/01 01:11:16;;;;;;;4.43;2.67;;;19.20;98.80;;;;;;5074140;28;20637;-89
2023/10/01 01:13:45;;;;;;;3.90;2.63;;;19.20;98.80;;;;;;5082200;28;20172;-88
2023/10/01 01:16:19;;;;;;;3.30;2.63;;;19.20;98.80;;;;;;5070651;28;20180;-88
2023/10/01 01:18:51;;;;;;;3.03;2.73;;;19.20;98.80;;;;;;5086884;28;20159;-88
2023/10/01 01:21:20;;;;;;;3.63;2.70;;;19.20;98.80;;;;;;5070632;28;20168;-88
2023/10/01 01:23:50;;;;;;;3.50;2.53;;;19.20;98.80;;;;;;5078604;28;20206;-88
2023/10/01 01:26:25;;;;;;;3.83;2.70;;;19.20;98.80;;;;;;5093049;28;20205;-88
2023/10/01 01:28:54;;;;;;;4.57;2.90;;;19.10;98.80;;;;;;5079627;28;20567;-88
2023/10/01 01:31:26;;;;;;;2.83;2.57;;;19.10;98.80;;;;;;5094107;28;20190;-88
2023/10/01 01:33:56;;;;;;;3.77;2.60;;;19.10;98.80;;;;;;5077979;28;20510;-88
2023/10/01 01:36:24;;;;;;;3.47;2.63;;;19.10;98.90;;;;;;5073226;28;20225;-88
2023/10/01 01:39:35;;;;;;;4.67;3.00;;;19.10;98.80;;;;;;5076792;28;20216;-88
2023/10/01 01:42:02;;;;;;;3.17;2.70;;;19.10;99.00;;;;;;5014852;28;20208;-88
2023/10/01 01:44:31;;;;;;;4.17;2.63;;;19.10;98.70;;;;;;5031941;28;20420;-88
2023/10/01 01:47:00;;;;;;;3.50;2.93;;;19.10;99.00;;;;;;5072606;28;20175;-88
2023/10/01 01:49:29;;;;;;;3.50;2.47;;;19.10;98.80;;;;;;5085451;28;20190;-89
2023/10/01 01:51:59;;;;;;;5.37;3.07;;;19.10;99.20;;;;;;5073516;28;20183;-88
2023/10/01 01:54:37;;;;;;;4.33;2.67;;;19.00;98.90;;;;;;5087607;28;20181;-88
2023/10/01 01:57:03;;;;;;;3.23;2.80;;;19.00;98.80;;;;;;5073697;28;20387;-89
2023/10/01 01:59:33;;;;;;;3.57;2.50;;;18.90;98.90;;;;;;5077657;28;20270;-89
2023/10/01 02:01:59;;;;;;;4.00;2.67;;;19.00;99.00;;;;;;5073482;28;20218;-88
2023/10/01 02:04:26;;;;;;;2.90;2.53;;;19.00;98.90;;;;;;5084935;28;20171;-88
2023/10/01 02:06:53;;;;;;;4.50;2.40;;;19.00;99.00;;;;;;5076246;28;20163;-88
2023/10/01 02:09:20;;;;;;;4.70;3.17;;;19.00;98.90;;;;;;5082758;28;20209;-88
2023/10/01 02:11:49;;;;;;;4.27;2.77;;;19.00;98.90;;;;;;5079429;28;20179;-88
2023/10/01 02:14:33;;;;;;;4.17;2.60;;;19.00;99.00;;;;;;5077502;28;20179;-88
2023/10/01 02:17:13;;;;;;;4.23;2.77;;;19.00;98.90;;;;;;5089633;28;20174;-88
2023/10/01 02:19:40;;;;;;;3.93;2.90;;;19.00;99.20;;;;;;5086505;28;20167;-88
2023/10/01 02:22:12;;;;;;;4.33;2.50;;;19.00;99.00;;;;;;5089400;28;20616;-88
2023/10/01 02:24:45;;;;;;;3.13;2.50;;;19.00;98.90;;;;;;5087671;28;20159;-88
2023/10/01 02:27:12;;;;;;;4.03;2.47;;;18.90;98.90;;;;;;5078084;28;20221;-88
2023/10/01 02:32:28;;;;;;;3.67;2.40;;;18.90;98.80;;;;;;5079279;28;20269;-88
2023/10/01 02:34:57;;;;;;;4.43;2.80;;;18.90;98.90;;;;;;5078460;28;20171;-88
2023/10/01 02:37:29;;;;;;;4.67;3.20;;;18.90;98.80;;;;;;5086833;28;20239;-89
2023/10/01 02:40:12;;;;;;;3.13;2.60;;;18.80;98.90;;;;;;5088026;28;20184;-89
2023/10/01 02:42:38;;;;;;;3.13;2.40;;;18.90;99.20;;;;;;5087484;28;20587;-88
2023/10/01 02:45:30;;;;;;;3.77;2.53;;;18.90;98.90;;;;;;5086411;28;20179;-89
2023/10/01 02:48:13;;;;;;;3.57;2.60;;;18.90;99.00;;;;;;5087257;28;20177;-89
2023/10/01 02:50:45;;;;;;;3.60;2.37;;;18.90;98.90;;;;;;5083659;28;20454;-88
2023/10/01 02:53:14;;;;;;;5.20;2.60;;;18.90;99.00;;;;;;5098006;28;20179;-88
2023/10/01 02:55:46;;;;;;;3.67;2.87;;;18.90;99.10;;;;;;5085619;28;20164;-88
2023/10/01 02:58:28;;;;;;;4.17;2.57;;;18.90;98.90;;;;;;5084733;28;20171;-88
2023/10/01 03:01:08;;;;;;;4.17;2.80;;;18.90;99.00;;;;;;5084558;28;20175;-88
2023/10/01 03:03:38;;;;;;;4.67;2.50;;;18.80;98.80;;;;;;5076751;28;20309;-88
2023/10/01 03:06:09;;;;;;;4.70;2.73;;;18.80;98.90;;;;;;5079215;28;20510;-88
2023/10/01 03:08:59;;;;;;;3.93;2.50;;;18.80;98.90;;;;;;5078680;28;20195;-88
2023/10/01 03:11:40;;;;;;;4.20;2.63;;;18.80;98.80;;;;;;5081430;28;20167;-89
2023/10/01 03:14:18;;;;;;;4.17;2.70;;;18.80;98.80;;;;;;5074394;28;20207;-89
2023/10/01 03:16:53;;;;;;;5.73;3.07;;;18.80;99.20;;;;;;5078138;28;20346;-89
2023/10/01 03:19:26;;;;;;;3.70;2.60;;;18.80;98.90;;;;;;5092936;28;20167;-89
2023/10/01 03:22:31;;;;;;;4.20;2.80;;;18.80;98.90;;;;;;5084801;28;20174;-89
2023/10/01 03:24:47;;;;;;;3.37;2.40;;;18.80;99.10;;;;;;5074861;28;20183;-89
2023/10/01 03:27:18;;;;;;;4.13;2.60;;;18.80;98.90;;;;;;5089041;28;20167;-89
2023/10/01 03:29:45;;;;;;;3.20;2.60;;;18.80;98.80;;;;;;5078380;28;20167;-89
2023/10/01 03:32:29;;;;;;;4.87;2.83;;;18.70;99.00;;;;;;5085975;28;20185;-88
2023/10/01 03:35:08;;;;;;;3.67;2.60;;;18.70;98.70;;;;;;5077784;28;20172;-88
2023/10/01 03:37:40;;;;;;;4.40;2.70;;;18.70;98.70;;;;;;5088588;28;20213;-88
2023/10/01 03:40:18;;;;;;;3.67;2.70;;;18.70;98.90;;;;;;5078987;28;20650;-89
2023/10/01 03:42:51;;;;;;;4.03;2.60;;;18.70;98.80;;;;;;5087525;28;20194;-89
2023/10/01 03:45:38;;;;;;;4.07;2.50;;;18.80;98.80;;;;;;5078324;28;20254;-88
2023/10/01 03:48:06;;;;;;;3.87;2.40;;;18.70;98.80;;;;;;5088419;28;20179;-88
2023/10/01 03:50:45;;;;;;;3.50;2.70;;;18.70;98.90;;;;;;5077564;28;20316;-88
2023/10/01 03:53:11;;;;;;;3.33;2.40;;;18.70;98.80;;;;;;5094001;28;20579;-88
2023/10/01 03:55:39;;;;;;;3.43;2.40;;;18.70;98.70;;;;;;5097460;28;20179;-88
2023/10/01 04:00:40;;;;;;;3.17;2.40;;;18.70;98.80;;;;;;5099353;28;20533;-89
2023/10/01 04:03:06;;;;;;;4.00;2.70;;;18.70;98.80;;;;;;5088729;28;20199;-88
2023/10/01 04:05:34;;;;;;;4.13;2.83;;;18.70;98.80;;;;;;5093341;28;20211;-88
2023/10/01 04:08:07;;;;;;;5.57;2.80;;;18.70;98.90;;;;;;5091067;28;20167;-88
2023/10/01 04:10:34;;;;;;;3.70;2.73;;;18.70;98.80;;;;;;5091053;28;20295;-88
2023/10/01 04:13:12;;;;;;;3.40;2.50;;;18.70;98.90;;;;;;5091713;28;20195;-88
2023/10/01 04:15:48;;;;;;;3.40;2.63;;;18.70;98.80;;;;;;5090004;28;20499;-88
2023/10/01 04:20:48;;;;;;;3.43;2.63;;;18.70;98.80;;;;;;5085055;28;20176;-88
2023/10/01 04:23:29;;;;;;;5.03;2.53;;;18.70;98.80;;;;;;5078410;28;20195;-88
2023/10/01 04:26:00;;;;;;;3.17;2.43;;;18.70;98.80;;;;;;5082874;28;20213;-88
2023/10/01 04:28:27;;;;;;;3.77;2.67;;;18.70;98.80;;;;;;5079917;28;20171;-88
2023/10/01 04:30:56;;;;;;;3.97;2.47;;;18.70;98.70;;;;;;5085487;28;20183;-88
2023/10/01 04:33:24;;;;;;;3.83;2.43;;;18.70;98.70;;;;;;5077164;28;20187;-88
2023/10/01 04:35:51;;;;;;;4.43;2.80;;;18.70;98.80;;;;;;5086094;28;20183;-88
2023/10/01 04:38:28;;;;;;;3.50;2.40;;;18.70;98.80;;;;;;5079701;28;20208;-88
2023/10/01 04:41:03;;;;;;;3.27;2.47;;;18.70;98.80;;;;;;5097191;28;20234;-88
2023/10/01 04:43:34;;;;;;;5.70;2.40;;;18.70;98.90;;;;;;5094529;28;20194;-88
2023/10/01 04:46:08;;;;;;;4.57;2.60;;;18.70;98.80;;;;;;5087551;28;20203;-88
2023/10/01 04:48:38;;;;;;;3.37;2.50;;;18.70;98.80;;;;;;5078187;28;20174;-88
2023/10/01 04:51:07;;;;;;;2.63;2.40;;;18.70;98.80;;;;;;5087846;28;20175;-88
2023/10/01 04:53:34;;;;;;;3.73;2.57;;;18.70;98.90;;;;;;5078220;28;20210;-88
2023/10/01 04:56:06;;;;;;;5.50;2.53;;;18.70;98.80;;;;;;5087061;28;20182;-87
2023/10/01 04:58:36;;;;;;;3.93;2.60;;;18.70;98.80;;;;;;5080993;28;20174;-88
2023/10/01 05:01:10;;;;;;;3.57;2.60;;;18.70;98.80;;;;;;5084060;28;20167;-88
2023/10/01 05:03:40;;;;;;;4.97;2.60;;;18.70;98.80;;;;;;5095701;28;20220;-88
2023/10/01 05:06:13;;;;;;;3.93;2.67;;;18.70;98.90;;;;;;5080464;28;20270;-88
2023/10/01 05:08:39;;;;;;;3.27;2.40;;;18.70;98.80;;;;;;5094026;28;20194;-88
2023/10/01 05:11:13;;;;;;;3.90;2.30;;;18.70;98.90;;;;;;5064349;28;20176;-88
2023/10/01 05:13:44;;;;;;;3.37;2.53;;;18.70;98.90;;;;;;5093932;28;20243;-87
2023/10/01 05:16:18;;;;;;;3.00;2.40;;;18.70;98.80;;;;;;5081641;28;20233;-88
2023/10/01 05:18:48;;;;;;;4.63;2.50;;;18.70;98.80;;;;;;5095765;28;20266;-88
2023/10/01 05:21:18;;;;;;;2.80;2.37;;;18.70;99.00;;;;;;5081775;28;20517;-88
2023/10/01 05:23:47;;;;;;;3.90;2.47;;;18.70;98.80;;;;;;5095578;28;20210;-88
2023/10/01 05:26:20;;;;;;;4.13;2.60;;;18.70;98.80;;;;;;5082838;28;20178;-88
2023/10/01 05:28:47;;;;;;;3.63;2.40;;;18.70;98.90;;;;;;5094965;28;20290;-88
2023/10/01 05:31:14;;;;;;;3.60;2.43;;;18.70;99.10;;;;;;5085117;28;20572;-88
2023/10/01 05:33:46;;;;;;;3.73;2.43;;;18.60;98.80;;;;;;5092618;28;20247;-88
2023/10/01 05:36:16;;;;;;;5.30;3.20;;;18.60;98.90;;;;;;5085535;28;20205;-89
2023/10/01 05:38:44;;;;;;;5.23;2.60;;;18.60;98.00;;;;;;5089816;28;20190;-88
2023/10/01 05:41:16;;;;;;;3.63;2.67;;;18.50;98.90;;;;;;5086901;28;20186;-88
2023/10/01 05:43:50;;;;;;;3.73;2.80;;;18.50;98.50;;;;;;5086356;28;20202;-89
2023/10/01 05:46:22;;;;;;;3.10;2.60;;;18.50;98.80;;;;;;5084341;28;20203;-88
2023/10/01 05:49:12;;;;;;;5.77;2.73;;;18.50;98.80;;;;;;5085899;28;20229;-88
2023/10/01 05:51:44;;;;;;;4.63;2.93;;;18.50;98.80;;;;;;5086228;28;20187;-88
2023/10/01 05:54:18;;;;;;;3.47;2.80;;;18.50;98.90;;;;;;5088688;28;20170;-89
2023/10/01 05:56:54;;;;;;;5.63;2.60;;;18.50;98.80;;;;;;5086152;28;20584;-89
2023/10/01 05:59:22;;;;;;;3.77;2.60;;;18.60;99.00;;;;;;5076738;28;20163;-88
2023/10/01 06:01:50;;;;;;;3.30;2.43;;;18.60;98.80;;;;;;5077054;28;20174;-88
2023/10/01 06:04:19;;;;;;;4.60;3.00;;;18.60;98.90;;;;;;5096709;28;20191;-88
2023/10/01 06:06:45;;;;;;;3.37;2.80;;;18.60;98.90;;;;;;5089515;28;20171;-88
2023/10/01 06:09:14;;;;;;;3.87;2.90;;;18.60;98.70;;;;;;5081333;28;20171;-88
2023/10/01 06:11:44;;;;;;;4.07;2.63;;;18.60;98.90;;;;;;5076542;28;20270;-88
2023/10/01 06:17:01;;;;;;;3.97;2.70;;;18.60;99.10;;;;;;5076430;28;20225;-88
2023/10/01 06:19:28;;;;;;;7.43;2.93;;;18.60;99.30;;;;;;5081700;28;20171;-88
2023/10/01 06:22:12;;;;;;;3.57;2.70;;;18.60;99.20;;;;;;5074429;28;20198;-88
2023/10/01 06:24:39;;;;;;;5.10;3.03;;;18.60;99.10;;;;;;5080914;28;20168;-88
2023/10/01 06:27:12;;;;;;;4.73;2.67;;;18.60;99.10;;;;;;5089327;28;20175;-88
2023/10/01 06:30:00;;;;;;;5.07;3.07;;;18.70;99.00;;;;;;5081043;28;20216;-88
2023/10/01 06:32:26;;;;;;;4.17;3.00;;;18.70;98.60;;;;;;5087469;28;20311;-88
2023/10/01 06:34:57;;;;;;;5.10;3.30;;;18.70;98.80;;;;;;5081358;28;20192;-88
2023/10/01 06:37:25;;;;;;;5.63;3.27;;;18.70;98.60;;;;;;5072519;28;20503;-88
2023/10/01 06:39:51;;;;;;;4.63;3.60;;;18.80;98.60;;;;;;5081727;28;20199;-88
2023/10/01 06:42:19;;;;;;;7.00;4.07;;;18.80;98.50;;;;;;5072610;28;20215;-88
2023/10/01 06:44:52;;;;;;;6.63;3.67;;;18.80;98.50;;;;;;5084092;28;20262;-88
2023/10/01 06:47:18;;;;;;;6.33;3.53;;;18.90;98.40;;;;;;5073533;28;20167;-88
2023/10/01 06:49:57;;;;;;;7.80;4.20;;;18.90;98.10;;;;;;5080991;28;20213;-88
2023/10/01 06:52:26;;;;;;;7.30;4.90;;;19.00;98.00;;;;;;5093674;28;20190;-88
2023/10/01 06:54:55;;;;;;;7.73;5.30;;;19.00;97.90;;;;;;5077772;28;20203;-88
2023/10/01 06:57:27;;;;;;;6.53;3.77;;;19.00;97.40;;;;;;5093183;28;20225;-88
2023/10/01 06:59:56;;;;;;;9.97;4.70;;;19.10;97.70;;;;;;5084341;28;20232;-88
2023/10/01 07:02:28;;;;;;;8.70;4.70;;;19.10;97.60;;;;;;5069978;28;20200;-87
2023/10/01 07:04:58;;;;;;;9.13;4.50;;;19.10;97.50;;;;;;5082588;28;20221;-87
2023/10/01 07:07:30;;;;;;;8.03;4.23;;;19.20;97.50;;;;;;5071287;28;20172;-87
2023/10/01 07:09:56;;;;;;;5.80;3.80;;;19.30;97.30;;;;;;5074664;28;20181;-88
2023/10/01 07:12:26;;;;;;;7.10;4.03;;;19.30;97.20;;;;;;5089216;28;20560;-88
2023/10/01 07:14:54;;;;;;;8.77;3.93;;;19.40;97.40;;;;;;5088339;28;20568;-87
2023/10/01 07:17:24;;;;;;;6.23;3.97;;;19.50;97.40;;;;;;5073537;28;20184;-87
2023/10/01 07:20:00;;;;;;;5.80;3.90;;;19.50;97.30;;;;;;5081457;28;20556;-87
2023/10/01 07:22:38;;;;;;;11.13;4.73;;;19.60;97.30;;;;;;5071658;28;20278;-88
2023/10/01 07:25:28;;;;;;;7.90;4.20;;;19.60;97.20;;;;;;5080863;28;20303;-87
2023/10/01 07:27:55;;;;;;;6.10;4.10;;;19.60;97.10;;;;;;5070581;28;20280;-88
2023/10/01 07:30:39;;;;;;;7.63;4.40;;;19.70;97.10;;;;;;5074039;28;20321;-88
2023/10/01 07:33:09;;;;;;;6.43;4.33;;;19.70;97.00;;;;;;5085503;28;20197;-88
2023/10/01 07:35:40;;;;;;;7.97;4.27;;;19.80;96.80;;;;;;5083243;28;20638;-88
2023/10/01 07:38:08;;;;;;;7.57;4.87;;;19.90;96.90;;;;;;5088552;28;20195;-88
2023/10/01 07:40:57;;;;;;;9.10;4.57;;;19.90;96.80;;;;;;5084468;28;20609;-88
2023/10/01 07:43:30;;;;;;;8.50;4.93;;;20.00;96.60;;;;;;5068022;28;20203;-87
2023/10/01 07:45:58;;;;;;;8.10;4.73;;;20.10;96.60;;;;;;5074397;28;20204;-88
2023/10/01 07:48:35;;;;;;;9.57;4.77;;;20.10;96.40;;;;;;5090649;28;20171;-88
2023/10/01 07:51:22;;;;;;;8.67;5.53;;;20.10;96.50;;;;;;5079708;28;20171;-89
2023/10/01 07:53:57;;;;;;;8.87;5.17;;;20.20;96.30;;;;;;5087248;28;20187;-88
2023/10/01 07:56:25;;;;;;;8.70;5.27;;;20.20;96.30;;;;;;5073797;28;20214;-88
2023/10/01 07:59:16;;;;;;;9.07;5.40;;;20.30;96.10;;;;;;5079641;28;20195;-88
2023/10/01 08:01:43;;;;;;;9.23;5.80;;;20.40;96.20;;;;;;5083071;28;20215;-88
2023/10/01 08:07:05;;;;;;;7.33;5.07;;;20.50;96.00;;;;;;5082720;28;20186;-88
2023/10/01 08:09:39;;;;;;;9.43;5.57;;;20.60;95.80;;;;;;5070732;28;20175;-88
2023/10/01 08:12:05;;;;;;;7.53;4.90;;;20.60;95.30;;;;;;5078857;28;20172;-88
2023/10/01 08:14:34;;;;;;;8.70;5.10;;;20.80;95.00;;;;;;5093016;28;20163;-88
2023/10/01 08:17:01;;;;;;;8.33;5.50;;;21.00;94.90;;;;;;5090007;28;20171;-88
2023/10/01 08:19:49;;;;;;;11.30;5.70;;;21.10;94.50;;;;;;5073524;28;20198;-88
2023/10/01 08:22:15;;;;;;;7.87;5.33;;;21.20;94.20;;;;;;5085763;28;20667;-88
2023/10/01 08:24:49;;;;;;;8.23;5.47;;;21.40;93.70;;;;;;5072025;28;20172;-88
2023/10/01 08:27:29;;;;;;;7.57;5.17;;;21.50;93.60;;;;;;5077272;28;20273;-87
2023/10/01 08:29:59;;;;;;;7.43;5.27;;;21.50;93.10;;;;;;5089064;28;20505;-88
2023/10/01 08:32:37;;;;;;;8.77;5.50;;;21.50;93.50;;;;;;5082763;28;20278;-87
2023/10/01 08:35:06;;;;;;;7.87;5.33;;;21.50;93.40;;;;;;5087243;28;20549;-88
2023/10/01 08:37:37;;;;;;;8.67;5.47;;;21.50;93.60;;;;;;5087608;28;20351;-88
2023/10/01 08:40:17;;;;;;;9.77;5.77;;;21.40;94.00;;;;;;5093517;28;20475;-88
2023/10/01 08:42:44;;;;;;;7.83;5.33;;;21.40;94.00;;;;;;5084731;28;20202;-88
2023/10/01 08:45:12;;;;;;;8.30;5.33;;;21.30;94.00;;;;;;5072101;28;20186;-88
2023/10/01 08:47:38;;;;;;;9.60;6.23;;;21.30;94.50;;;;;;5080751;28;20224;-87
2023/10/01 08:50:27;;;;;;;10.00;6.03;;;21.30;94.40;;;;;;5077503;28;20214;-88
2023/10/01 08:53:09;;;;;;;7.73;5.10;;;21.30;94.70;;;;;;5080803;28;20333;-89
2023/10/01 08:55:39;;;;;;;9.40;5.40;;;21.30;94.70;;;;;;5071592;28;20174;-88
2023/10/01 08:58:15;;;;;;;8.33;5.67;;;21.30;94.80;;;;;;5079523;28;20458;-88
2023/10/01 09:01:10;;;;;;;9.07;5.67;;;21.30;95.20;;;;;;5070659;28;20175;-88
2023/10/01 09:03:39;;;;;;;10.20;6.40;;;21.40;95.00;;;;;;5082806;28;20206;-88
2023/10/01 09:06:09;;;;;;;9.10;5.87;;;21.40;95.30;;;;;;5073137;28;20266;-88
2023/10/01 09:08:46;;;;;;;8.77;5.63;;;21.40;95.00;;;;;;5083366;28;20182;-88
2023/10/01 09:11:19;;;;;;;11.23;6.53;;;21.40;95.20;;;;;;5072837;28;20175;-88
2023/10/01 09:16:42;;;;;;;11.40;6.00;;;21.50;95.50;;;;;;5072702;28;20632;-88
2023/10/01 09:19:31;;;;;;;10.10;6.20;;;21.50;95.50;;;;;;5093343;28;20171;-88
2023/10/01 09:25:15;;;;;;;11.32;5.85;;;21.50;95.70;;;;;;5076549;28;20650;-88
2023/10/01 09:28:29;;;;;;;9.17;6.10;;;21.60;95.50;;;;;;5090384;28;20213;-88
2023/10/01 09:31:26;;;;;;;10.63;6.60;;;21.60;95.90;;;;;;5081545;28;20166;-87
2023/10/01 09:33:52;;;;;;;10.53;6.60;;;21.60;95.50;;;;;;5082836;28;20434;-87
2023/10/01 09:36:45;;;;;;;9.10;5.97;;;21.60;95.60;;;;;;5062957;28;20230;-87
2023/10/01 09:39:13;;;;;;;10.05;6.00;;;21.60;95.70;;;;;;5075880;28;20317;-87
2023/10/01 09:41:45;;;;;;;9.60;6.07;;;21.60;96.00;;;;;;5082876;28;20175;-87
2023/10/01 09:44:14;;;;;;;9.70;6.27;;;21.70;96.00;;;;;;5081850;28;20210;-88
2023/10/01 09:46:41;;;;;;;9.43;5.70;;;21.70;95.60;;;;;;5068030;28;20171;-88
2023/10/01 09:49:10;;;;;;;9.60;5.43;;;21.80;95.70;;;;;;5073395;28;20180;-89
2023/10/01 09:51:41;;;;;;;10.53;6.17;;;21.80;95.80;;;;;;5078866;28;20171;-88
2023/10/01 09:54:11;;;;;;;10.02;6.28;;;21.90;95.90;;;;;;5072737;28;20187;-87
2023/10/01 09:59:08;;;;;;;10.47;6.67;;;21.90;95.70;;;;;;5082600;28;20527;-88
2023/10/01 10:01:36;;;;;;;9.60;6.07;;;21.90;95.90;;;;;;5078458;28;20530;-88
2023/10/01 10:04:06;;;;;;;12.20;6.47;;;22.00;95.80;;;;;;5089255;28;20297;-87
2023/10/01 10:06:39;;;;;;;15.60;7.00;;;22.00;96.10;;;;;;5075537;28;20510;-88
2023/10/01 10:09:10;;;;;;;15.20;6.57;;;22.00;96.60;;;;;;5090206;28;20175;-87
2023/10/01 10:11:39;;;;;;;14.80;6.60;;;22.00;96.40;;;;;;5078491;28;20225;-87
2023/10/01 10:14:26;;;;;;;14.93;7.03;;;22.00;96.30;;;;;;5089258;28;20193;-87
2023/10/01 10:23:21;;;;;;;11.37;6.17;;;22.10;95.80;;;;;;5080543;28;20263;-88
2023/10/01 10:25:49;;;;;;;12.73;6.47;;;22.10;95.80;;;;;;5078824;28;20178;-88
2023/10/01 10:28:27;;;;;;;11.93;6.00;;;22.20;95.90;;;;;;5082106;28;20186;-87
2023/10/01 10:31:36;;;;;;;10.20;6.33;;;22.30;96.20;;;;;;5079762;28;20168;-87
2023/10/01 10:34:25;;;;;;;11.17;6.53;;;22.30;95.50;;;;;;5068320;28;20568;-87
2023/10/01 10:36:54;;;;;;;12.47;5.97;;;22.40;95.30;;;;;;5082274;28;20175;-87
2023/10/01 10:39:47;;;;;;;11.57;6.53;;;22.50;95.50;;;;;;5067481;28;20191;-87
2023/10/01 10:42:28;;;;;;;11.60;6.33;;;22.50;95.60;;;;;;5079587;28;20179;-88
2023/10/01 10:45:22;;;;;;;9.57;5.77;;;22.40;95.20;;;;;;5068801;28;20274;-87
2023/10/01 10:48:03;;;;;;;11.77;6.47;;;22.30;95.60;;;;;;5081365;28;20441;-87
2023/10/01 10:50:50;;;;;;;8.87;5.80;;;22.30;95.70;;;;;;5072992;28;20511;-87
2023/10/01 10:53:23;;;;;;;8.80;6.03;;;22.30;95.70;;;;;;5075806;28;20324;-87
2023/10/01 10:56:13;;;;;;;8.93;5.80;;;22.20;95.70;;;;;;5068182;28;20178;-87
2023/10/01 10:58:47;;;;;;;10.63;6.47;;;22.20;95.80;;;;;;5069651;28;20352;-87
2023/10/01 11:01:24;;;;;;;10.27;6.13;;;22.20;95.90;;;;;;5066641;28;20253;-87
2023/10/01 11:04:00;;;;;;;9.57;5.93;;;22.20;96.00;;;;;;5074655;28;20490;-87
2023/10/01 11:07:01;;;;;;;12.37;5.73;;;22.20;96.00;;;;;;5069650;28;20170;-87
2023/10/01 11:09:30;;;;;;;9.53;5.87;;;22.20;95.90;;;;;;5082443;28;20171;-87
2023/10/01 11:12:01;;;;;;;9.47;5.37;;;22.30;95.80;;;;;;5084350;28;20168;-88
2023/10/01 11:14:30;;;;;;;7.90;5.27;;;22.20;95.90;;;;;;5082455;28;20178;-88
2023/10/01 11:16:56;;;;;;;10.60;5.50;;;22.20;95.90;;;;;;5083525;28;20364;-88
2023/10/01 11:19:28;;;;;;;10.43;5.93;;;22.30;95.80;;;;;;5078905;28;20183;-88
2023/10/01 11:22:00;;;;;;;9.30;5.40;;;22.30;96.00;;;;;;5074369;28;20187;-87
2023/10/01 11:24:32;;;;;;;11.63;5.93;;;22.30;95.80;;;;;;5083760;28;20194;-87
2023/10/01 11:27:43;;;;;;;9.23;5.63;;;22.20;96.00;;;;;;5085980;28;20201;-88
2023/10/01 11:30:16;;;;;;;8.47;5.27;;;22.30;95.80;;;;;;5083691;28;20206;-88
2023/10/01 11:35:40;;;;;;;9.20;5.60;;;22.30;95.90;;;;;;5070818;28;20294;-88
2023/10/01 11:38:12;;;;;;;9.37;5.60;;;22.20;96.20;;;;;;5070761;28;20252;-89
2023/10/01 11:43:35;;;;;;;9.37;5.50;;;22.20;96.10;;;;;;5080093;28;20314;-88
2023/10/01 11:47:07;;;;;;;9.03;5.30;;;22.20;96.30;;;;;;5088402;28;20768;-87
2023/10/01 11:49:06;;;;;;;8.43;5.17;;;22.20;96.40;;;;;;5073763;28;20175;-88
2023/10/01 11:52:01;;;;;;;8.47;5.70;;;22.20;96.40;;;;;;5088946;28;20207;-88
2023/10/01 11:54:44;;;;;;;9.87;5.87;;;22.20;96.50;;;;;;5077054;28;20236;-88
2023/10/01 11:57:31;;;;;;;9.43;5.80;;;22.20;96.70;;;;;;5090423;28;20215;-89
2023/10/01 12:00:01;;;;;;;8.30;5.30;;;22.20;96.50;;;;;;5081664;28;20178;-88
2023/10/01 12:02:43;;;;;;;8.77;5.17;;;22.20;96.60;;;;;;5067384;28;20210;-89
2023/10/01 12:05:13;;;;;;;8.87;5.67;;;22.20;96.60;;;;;;5079729;28;20210;-88
2023/10/01 12:07:49;;;;;;;9.37;5.77;;;22.20;96.70;;;;;;5068869;28;20184;-89
2023/10/01 12:12:59;;;;;;;9.43;5.70;;;22.20;96.90;;;;;;5094242;28;20190;-88
2023/10/01 12:15:34;;;;;;;8.10;5.40;;;22.20;96.80;;;;;;5075396;28;20695;-88
2023/10/01 12:18:14;;;;;;;9.93;5.70;;;22.20;96.80;;;;;;5089026;28;20262;-88
2023/10/01 12:20:47;;;;;;;8.67;5.23;;;22.20;96.80;;;;;;5074069;28;20643;-88
2023/10/01 12:23:26;;;;;;;8.73;5.40;;;22.20;96.80;;;;;;5087100;28;20207;-88
2023/10/01 12:28:24;;;;;;;10.83;5.97;;;22.20;96.90;;;;;;5089827;28;20258;-88
2023/10/01 12:31:00;;;;;;;8.90;5.57;;;22.20;97.10;;;;;;5076165;28;20179;-88
2023/10/01 12:33:58;;;;;;;9.53;5.70;;;22.20;97.10;;;;;;5089115;28;20918;-88
2023/10/01 12:36:31;;;;;;;8.90;5.87;;;22.20;97.00;;;;;;5078487;28;20337;-88
2023/10/01 12:44:25;;;;;;;8.83;5.47;;;22.20;97.10;;;;;;5071698;28;20430;-88
2023/10/01 12:47:02;;;;;;;8.90;5.27;;;22.20;97.20;;;;;;5078623;28;20177;-88
2023/10/01 12:49:34;;;;;;;10.47;5.90;;;22.20;97.20;;;;;;5087463;28;20236;-85
2023/10/01 12:52:05;;;;;;;8.30;5.17;;;22.30;97.20;;;;;;5070698;28;20178;-86
2023/10/01 12:54:36;;;;;;;9.50;5.67;;;22.20;97.10;;;;;;5066331;28;20587;-86
2023/10/01 12:57:23;;;;;;;11.30;5.63;;;22.20;97.10;;;;;;5079129;28;20183;-86
2023/10/01 13:00:44;;;;;;;9.97;5.77;;;22.30;97.00;;;;;;5083000;28;20351;-87
2023/10/01 13:02:48;;;;;;;11.27;5.60;;;22.30;97.00;;;;;;5073259;28;20287;-87
2023/10/01 13:05:20;;;;;;;8.90;5.70;;;22.20;97.00;;;;;;5086122;28;20752;-87
2023/10/01 13:07:48;;;;;;;10.70;5.80;;;22.30;97.10;;;;;;5080692;28;20444;-87
2023/10/01 13:10:16;;;;;;;10.73;5.87;;;22.30;97.20;;;;;;5069702;28;20175;-87
2023/10/01 13:12:57;;;;;;;10.40;5.90;;;22.20;97.10;;;;;;5080239;28;20591;-87
2023/10/01 13:15:30;;;;;;;10.43;5.97;;;22.30;97.20;;;;;;5069107;28;20195;-87
2023/10/01 13:18:04;;;;;;;9.27;5.63;;;22.30;97.40;;;;;;5079952;28;20266;-87
2023/10/01 13:20:46;;;;;;;8.67;6.20;;;22.30;97.20;;;;;;5069855;28;20584;-87
2023/10/01 13:23:12;;;;;;;11.10;6.20;;;22.30;97.30;;;;;;5077740;28;20195;-87
2023/10/01 13:25:39;;;;;;;9.80;6.30;;;22.30;97.30;;;;;;5068787;28;20220;-87
2023/10/01 13:28:05;;;;;;;10.27;5.67;;;22.30;97.30;;;;;;5079208;28;20774;-87
2023/10/01 13:31:03;;;;;;;9.63;5.73;;;22.30;97.30;;;;;;5066407;28;20285;-87
2023/10/01 13:33:20;;;;;;;12.33;6.50;;;22.30;97.20;;;;;;5075502;28;20546;-87
2023/10/01 13:35:56;;;;;;;9.40;5.27;;;22.30;97.30;;;;;;5088598;28;20204;-87
2023/10/01 13:39:12;;;;;;;9.13;6.00;;;22.30;97.30;;;;;;5073341;28;20724;-86
2023/10/01 14:08:43;;;;;;;10.67;6.07;;;22.50;97.70;;;;;;5077809;28;20179;-87
2023/10/01 14:11:16;;;;;;;10.83;6.40;;;22.50;97.50;;;;;;5087894;28;20170;-87
2023/10/01 14:13:42;;;;;;;8.73;6.03;;;22.50;97.60;;;;;;5082792;28;20175;-87
2023/10/01 14:16:13;;;;;;;10.10;6.33;;;22.50;97.60;;;;;;5066937;28;20467;-87
2023/10/01 14:18:53;;;;;;;10.27;6.33;;;22.50;97.60;;;;;;5066816;28;20374;-86
2023/10/01 14:21:22;;;;;;;12.47;6.87;;;22.60;97.80;;;;;;5084026;28;20182;-87
2023/10/01 14:23:57;;;;;;;8.97;5.90;;;22.50;97.80;;;;;;5077703;28;20207;-87
2023/10/01 14:26:33;;;;;;;10.57;6.40;;;22.50;97.50;;;;;;5081451;28;20166;-86
2023/10/01 14:28:59;;;;;;;10.57;6.30;;;22.50;97.60;;;;;;5074648;28;20431;-87
2023/10/01 14:31:41;;;;;;;9.43;6.10;;;22.50;97.50;;;;;;5064372;28;20660;-87